Startpagina
METAR-TAF:

METAR-TAF

Vliegvelden :

Yao, Japan

breedte: 34-36N, lengte: 135-36E, hoogte: 10 m

Actueel weer

Dit bericht is 50 minuten geleden gemaakt, om 01:00 UTC
Wind 7 kt uit het westen, variërend tussen het zuidwesten en het westnoordwesten
Temperatuur 12°C
Vochtigheid 82%
Druk 1009 hPa
Zicht 10 km of meer
Weinig wolken op 800 ft
Verspreide wolken op 3000 ft
Gebroken wolken op 4500 ft

METAR: RJOY 290100Z 26007KT 220V290 9999 FEW008 SCT030 BKN045 12/09 Q1009

Tijdstip: 10:50 (01:50 UTC)


TAF: ontbreekt

Waarnemingen en weersverwachtingen van meer dan 4000 vliegvelden (METAR en TAF).

De beschikbare stations zijn de gele en rode punten op de kaart.

Ga met uw muis naar het station om de naam te zien.

Klik dan om waarnemingen en weersverwachtingen te zien.

kaart wijzigen: klik op de groene knoppen met een zwart kruis om in te zoomen, op de groene knop met een streepje om uit te zoomen of op de groene pijlen voor aangrenzende kaarten.


METAR-TAF: